Time;durP1;ratioP1;P1;durP2;ratioP2;P2;SDS_P1;SDS_P2;PMS_P1;PMS_P2;Temp;Humidity;BMP_temperature;BMP_pressure;BME280_temperature;BME280_humidity;BME280_pressure;Samples;Min_cycle;Max_cycle;Signal;HPM_P1;HPM_P2
2022/06/02 00:02:34;;;;;;;6.20;4.50;;;;;;;13.35;61.73;100280.16;5016105;28;20057;-55
2022/06/02 00:05:18;;;;;;;4.97;4.47;;;;;;;13.35;61.63;100285.38;5008940;28;20516;-56
2022/06/02 00:08:18;;;;;;;4.55;4.10;;;;;;;13.34;61.85;100280.16;5017180;28;20068;-54
2022/06/02 00:11:22;;;;;;;15.68;5.50;;;;;;;13.32;61.53;100285.34;5015629;28;20421;-54
2022/06/02 00:14:32;;;;;;;10.95;5.20;;;;;;;13.31;61.92;100283.63;5017146;28;20137;-54
2022/06/02 00:17:35;;;;;;;6.28;5.18;;;;;;;13.30;61.75;100292.28;5015971;28;20456;-55
2022/06/02 00:20:49;;;;;;;13.35;5.45;;;;;;;13.28;61.76;100295.72;5016081;28;20055;-54
2022/06/02 00:23:44;;;;;;;53.25;8.32;;;;;;;13.26;61.63;100293.13;5015613;28;20040;-56
2022/06/02 00:26:51;;;;;;;10.55;5.20;;;;;;;13.25;61.66;100294.84;5016099;28;20048;-56
2022/06/02 00:29:46;;;;;;;15.27;5.55;;;;;;;13.26;61.75;100298.31;5015477;28;20571;-54
2022/06/02 00:32:34;;;;;;;7.75;5.53;;;;;;;13.24;61.65;100289.63;5015992;28;20104;-54
2022/06/02 00:35:53;;;;;;;9.95;5.50;;;;;;;13.25;61.57;100296.56;5016453;28;20064;-54
2022/06/02 00:38:39;;;;;;;10.70;5.60;;;;;;;13.23;61.39;100300.91;5016319;28;20049;-54
2022/06/02 00:41:29;;;;;;;7.75;5.68;;;;;;;13.21;61.29;100302.59;5015784;28;20133;-54
2022/06/02 00:44:31;;;;;;;12.45;5.80;;;;;;;13.21;61.46;100298.28;5016258;28;20523;-54
2022/06/02 00:47:45;;;;;;;11.73;5.53;;;;;;;13.19;61.39;100304.31;5015555;28;20449;-54
2022/06/02 00:50:37;;;;;;;11.98;5.70;;;;;;;13.19;61.54;100304.31;5015368;28;20112;-54
2022/06/02 00:53:36;;;;;;;9.65;5.95;;;;;;;13.17;61.45;100291.31;5015427;28;20049;-55
2022/06/02 01:00:11;;;;;;;11.45;5.45;;;;;;;13.16;61.66;100293.88;5008770;28;20168;-54
2022/06/02 01:03:37;;;;;;;8.02;5.50;;;;;;;13.17;61.66;100303.44;5016299;28;20073;-54
2022/06/02 01:06:32;;;;;;;13.77;6.10;;;;;;;13.15;61.65;100306.03;5001631;28;20065;-55
2022/06/02 01:09:39;;;;;;;7.15;5.93;;;;;;;13.15;61.65;100300.81;5014924;28;20057;-55
2022/06/02 01:12:33;;;;;;;10.48;6.00;;;;;;;13.16;61.67;100301.69;5015885;28;20049;-56
2022/06/02 01:15:24;;;;;;;5.93;5.30;;;;;;;13.15;61.61;100298.22;5015951;28;20124;-54
2022/06/02 01:18:41;;;;;;;6.68;5.28;;;;;;;13.14;61.62;100299.06;5015800;28;20551;-54
2022/06/02 01:21:31;;;;;;;6.88;5.30;;;;;;;13.14;61.78;100308.63;5015701;28;20418;-54
2022/06/02 01:24:37;;;;;;;6.38;5.40;;;;;;;13.13;61.38;100306.88;5015647;28;20092;-55
2022/06/02 01:27:43;;;;;;;6.13;5.53;;;;;;;13.12;61.54;100303.38;5014366;28;20104;-55
2022/06/02 01:31:01;;;;;;;5.55;4.90;;;;;;;13.09;61.45;100309.44;5014863;28;20052;-55
2022/06/02 01:33:56;;;;;;;10.52;4.53;;;;;;;13.10;61.58;100311.19;5014585;28;20080;-53
2022/06/02 01:37:01;;;;;;;7.57;5.38;;;;;;;13.10;61.44;100305.09;5013944;28;20045;-56
2022/06/02 01:39:57;;;;;;;6.57;5.20;;;;;;;13.09;61.52;100312.03;5014542;28;20044;-55
2022/06/02 01:42:56;;;;;;;5.50;4.80;;;;;;;13.09;61.74;100305.94;5014938;28;20409;-54
2022/06/02 01:45:59;;;;;;;6.57;4.38;;;;;;;13.08;61.54;100309.41;5014648;28;20114;-54
2022/06/02 01:49:05;;;;;;;6.22;5.25;;;;;;;13.07;61.46;100315.50;5015294;28;20060;-54
2022/06/02 01:51:55;;;;;;;6.13;5.53;;;;;;;13.06;61.70;100317.22;5015288;28;20057;-54
2022/06/02 01:55:02;;;;;;;5.70;5.20;;;;;;;13.05;61.37;100318.06;5014140;28;20072;-54
2022/06/02 01:57:59;;;;;;;8.23;5.65;;;;;;;13.04;61.45;100321.53;5014295;28;20462;-54
2022/06/02 02:00:50;;;;;;;10.05;5.43;;;;;;;13.01;61.51;100313.69;5014014;28;20099;-54
2022/06/02 02:03:44;;;;;;;8.85;5.68;;;;;;;13.01;61.57;100308.47;5014165;28;20064;-54
2022/06/02 02:06:55;;;;;;;6.90;5.95;;;;;;;13.00;61.27;100311.94;5013543;28;20100;-55
2022/06/02 02:09:48;;;;;;;5.97;5.38;;;;;;;12.99;61.35;100307.63;5012358;28;20053;-54
2022/06/02 02:13:09;;;;;;;7.05;5.13;;;;;;;12.98;61.48;100316.28;5015047;28;20516;-54
2022/06/02 02:15:56;;;;;;;6.10;5.13;;;;;;;12.99;61.51;100317.13;5014388;28;20057;-55
2022/06/02 02:19:20;;;;;;;11.27;6.00;;;;;;;12.99;61.45;100311.94;5013929;28;20045;-54
2022/06/02 02:22:21;;;;;;;5.90;5.30;;;;;;;12.98;61.44;100308.47;5014835;28;20417;-55
2022/06/02 02:25:22;;;;;;;6.22;5.22;;;;;;;12.97;61.60;100317.13;5014057;28;20057;-55
2022/06/02 02:28:22;;;;;;;7.07;5.47;;;;;;;12.96;61.70;100323.19;5013374;28;20045;-55
2022/06/02 02:31:12;;;;;;;6.28;5.25;;;;;;;12.96;61.35;100325.78;5013325;28;20048;-56
2022/06/02 02:34:33;;;;;;;8.30;5.60;;;;;;;12.93;61.15;100321.41;5013338;28;20049;-56
2022/06/02 02:37:29;;;;;;;7.10;6.40;;;;;;;12.93;61.45;100325.75;5014177;28;20053;-54
2022/06/02 02:40:26;;;;;;;7.05;5.78;;;;;;;12.91;61.60;100323.16;5013715;28;20045;-54
2022/06/02 02:43:40;;;;;;;6.50;5.68;;;;;;;12.90;61.29;100330.91;5013902;28;20057;-53
2022/06/02 02:46:32;;;;;;;6.57;5.60;;;;;;;12.90;61.53;100328.31;5013406;28;20099;-54
2022/06/02 02:49:29;;;;;;;9.48;7.25;;;;;;;12.87;61.61;100329.16;5013185;28;20524;-54
2022/06/02 02:52:22;;;;;;;8.68;6.88;;;;;;;12.89;61.59;100331.78;5013408;28;20397;-54
2022/06/02 02:55:19;;;;;;;7.93;6.55;;;;;;;12.89;61.44;100336.97;5014184;28;20109;-54
2022/06/02 02:58:09;;;;;;;7.28;5.90;;;;;;;12.88;61.40;100333.50;5013397;28;20401;-54
2022/06/02 03:01:15;;;;;;;14.93;6.80;;;;;;;12.88;61.63;100332.63;5013199;28;20540;-54
2022/06/02 03:04:14;;;;;;;8.73;6.57;;;;;;;12.86;61.56;100330.00;5012888;28;20130;-54
2022/06/02 03:07:06;;;;;;;10.23;6.45;;;;;;;12.85;61.43;100322.19;5013028;28;20052;-54
2022/06/02 03:10:12;;;;;;;7.47;6.45;;;;;;;12.84;61.31;100329.13;5012681;28;20520;-54
2022/06/02 03:12:59;;;;;;;7.93;5.95;;;;;;;12.84;61.65;100329.13;5013644;28;20044;-54
2022/06/02 03:16:06;;;;;;;6.88;6.15;;;;;;;12.83;61.21;100327.38;5013763;28;20100;-54
2022/06/02 03:19:09;;;;;;;10.30;6.28;;;;;;;12.83;61.37;100329.13;5013107;28;20081;-54
2022/06/02 03:22:26;;;;;;;7.15;5.82;;;;;;;12.82;61.74;100328.22;5012719;28;20112;-54
2022/06/02 03:25:26;;;;;;;8.65;6.40;;;;;;;12.82;61.63;100335.16;5012666;28;20052;-55
2022/06/02 03:28:22;;;;;;;23.35;6.65;;;;;;;12.81;61.48;100333.44;5013452;28;20048;-54
2022/06/02 03:31:27;;;;;;;8.95;6.07;;;;;;;12.80;61.56;100335.13;5013261;28;20064;-54
2022/06/02 03:34:40;;;;;;;8.30;6.35;;;;;;;12.78;61.56;100340.34;5013549;28;20049;-54
2022/06/02 03:38:08;;;;;;;8.40;6.43;;;;;;;12.78;61.86;100344.66;5012606;28;20512;-53
2022/06/02 03:41:15;;;;;;;10.38;7.13;;;;;;;12.77;61.77;100346.38;5010898;28;20049;-54
2022/06/02 03:44:25;;;;;;;7.80;6.03;;;;;;;12.75;61.34;100350.69;5012754;28;20057;-54
2022/06/02 03:47:17;;;;;;;8.73;6.72;;;;;;;12.75;61.58;100348.09;5013462;28;20049;-54
2022/06/02 03:50:22;;;;;;;9.25;6.60;;;;;;;12.75;61.43;100348.09;5012505;28;20413;-54
2022/06/02 03:53:14;;;;;;;10.18;6.95;;;;;;;12.74;61.44;100351.53;5012226;28;20049;-54
2022/06/02 03:56:02;;;;;;;7.78;6.97;;;;;;;12.75;61.57;100355.03;5012272;28;20512;-54
2022/06/02 03:59:04;;;;;;;8.70;7.07;;;;;;;12.73;61.49;100355.00;5012808;28;20071;-54
2022/06/02 04:02:03;;;;;;;9.60;6.93;;;;;;;12.72;61.29;100360.19;5011921;28;20466;-54
2022/06/02 04:05:08;;;;;;;10.25;8.38;;;;;;;12.72;61.58;100365.41;5012978;28;20057;-54
2022/06/02 04:08:08;;;;;;;10.23;8.13;;;;;;;12.69;61.88;100360.16;5013278;28;20052;-54
2022/06/02 04:11:11;;;;;;;8.05;7.25;;;;;;;12.70;61.67;100354.09;5013317;28;20165;-56
2022/06/02 04:14:16;;;;;;;8.50;6.97;;;;;;;12.70;61.77;100349.75;5013123;28;20072;-56
2022/06/02 04:17:15;;;;;;;8.43;7.40;;;;;;;12.71;61.83;100358.44;5012303;28;20049;-56
2022/06/02 04:20:36;;;;;;;8.60;7.70;;;;;;;12.71;61.79;100361.91;5012451;28;20661;-56
2022/06/02 04:23:53;;;;;;;10.50;7.47;;;;;;;12.70;61.43;100348.91;5013397;28;20515;-56
2022/06/02 04:27:04;;;;;;;10.18;7.20;;;;;;;12.69;61.79;100348.00;5012476;28;20056;-56
2022/06/02 04:30:12;;;;;;;9.90;6.95;;;;;;;12.68;61.75;100359.28;5011939;28;20076;-56
2022/06/02 04:33:15;;;;;;;8.10;6.95;;;;;;;12.68;61.64;100358.41;5013465;28;20045;-56
2022/06/02 04:36:20;;;;;;;8.80;7.75;;;;;;;12.67;61.77;100359.25;5016077;28;20096;-56
2022/06/02 04:39:04;;;;;;;10.50;7.80;;;;;;;12.66;61.88;100355.78;5015924;28;20092;-56
2022/06/02 04:42:02;;;;;;;9.55;7.97;;;;;;;12.67;61.65;100356.66;5016858;28;20084;-55
2022/06/02 04:45:33;;;;;;;10.13;8.20;;;;;;;12.67;61.88;100360.13;5015541;28;20041;-56
2022/06/02 04:48:32;;;;;;;11.35;8.18;;;;;;;12.66;62.03;100363.59;4993158;28;20049;-55
2022/06/02 04:51:25;;;;;;;13.32;8.27;;;;;;;12.65;61.60;100359.25;5015398;28;20049;-57
2022/06/02 04:54:22;;;;;;;14.07;8.65;;;;;;;12.67;61.91;100359.25;5015982;28;20104;-56
2022/06/02 04:57:33;;;;;;;9.85;7.70;;;;;;;12.67;62.00;100356.66;5015096;28;20104;-55
2022/06/02 05:00:49;;;;;;;11.27;8.43;;;;;;;12.66;61.82;100357.50;5015525;28;20556;-56
2022/06/02 05:03:56;;;;;;;9.20;7.47;;;;;;;12.65;61.77;100361.84;5016048;28;20061;-56
2022/06/02 05:06:53;;;;;;;9.82;8.30;;;;;;;12.66;61.93;100354.91;5015762;28;20045;-56
2022/06/02 05:09:47;;;;;;;9.45;7.80;;;;;;;12.67;61.77;100367.94;5015994;28;20057;-56
2022/06/02 05:13:12;;;;;;;13.10;8.88;;;;;;;12.66;61.83;100374.00;5014753;28;20041;-56
2022/06/02 05:16:13;;;;;;;9.50;8.50;;;;;;;12.67;61.95;100378.34;5006770;28;20080;-56
2022/06/02 05:19:19;;;;;;;12.15;8.23;;;;;;;12.66;62.12;100379.19;5014997;28;20148;-56
2022/06/02 05:22:34;;;;;;;11.25;9.48;;;;;;;12.66;62.29;100389.59;5014696;28;20130;-56
2022/06/02 05:25:43;;;;;;;11.48;8.43;;;;;;;12.67;62.04;100393.94;5014845;28;20056;-54
2022/06/02 05:29:14;;;;;;;10.98;8.02;;;;;;;12.67;62.27;100399.16;5014963;28;20408;-54
2022/06/02 05:32:54;;;;;;;12.13;9.25;;;;;;;12.67;62.33;100396.53;4974515;28;20077;-54
2022/06/02 05:35:53;;;;;;;9.98;8.88;;;;;;;12.66;62.41;100394.81;4941810;28;20470;-54
2022/06/02 05:38:49;;;;;;;10.55;9.07;;;;;;;12.67;62.16;100406.94;5014417;28;20076;-54
2022/06/02 05:41:57;;;;;;;11.35;8.93;;;;;;;12.66;62.24;100400.00;5015549;28;20057;-55
2022/06/02 05:45:03;;;;;;;10.65;8.98;;;;;;;12.66;62.40;100401.72;5013325;28;20049;-54
2022/06/02 05:48:03;;;;;;;12.40;9.45;;;;;;;12.66;62.33;100402.59;5014015;28;20092;-56
2022/06/02 05:51:16;;;;;;;10.35;8.77;;;;;;;12.68;62.26;100410.41;5014154;28;20523;-54
2022/06/02 05:54:17;;;;;;;9.93;8.75;;;;;;;12.67;62.74;100412.16;5014409;28;20045;-54
2022/06/02 05:57:25;;;;;;;12.85;9.15;;;;;;;12.69;62.63;100423.41;5014080;28;20065;-54
2022/06/02 06:00:31;;;;;;;13.57;9.95;;;;;;;12.67;62.67;100426.84;5014367;28;20072;-54
2022/06/02 06:03:18;;;;;;;11.70;10.20;;;;;;;12.68;62.61;100432.09;5013819;28;20148;-54
2022/06/02 06:06:26;;;;;;;12.80;9.43;;;;;;;12.67;62.40;100435.56;5014858;28;20544;-54
2022/06/02 06:09:34;;;;;;;12.73;10.18;;;;;;;12.67;62.52;100435.56;5015060;28;20065;-54
2022/06/02 06:12:51;;;;;;;11.15;8.98;;;;;;;12.68;62.92;100434.69;5014090;28;20053;-54
2022/06/02 06:15:47;;;;;;;13.57;10.27;;;;;;;12.68;62.69;100436.41;5014593;28;20415;-54
2022/06/02 06:18:53;;;;;;;14.20;10.40;;;;;;;12.68;62.73;100439.00;5013834;28;20072;-54
2022/06/02 06:21:59;;;;;;;12.73;10.05;;;;;;;12.68;62.88;100439.91;5014759;28;20044;-54
2022/06/02 06:25:21;;;;;;;11.35;8.90;;;;;;;12.65;62.95;100437.25;5014484;28;20087;-53
2022/06/02 06:28:13;;;;;;;11.05;9.90;;;;;;;12.67;62.59;100440.75;5014618;28;20061;-56
2022/06/02 06:31:17;;;;;;;10.63;9.52;;;;;;;12.67;62.96;100445.97;5013856;28;20116;-54
2022/06/02 06:34:17;;;;;;;12.75;10.48;;;;;;;12.66;62.78;100448.50;5013532;28;20100;-54
2022/06/02 06:37:22;;;;;;;12.15;9.35;;;;;;;12.66;62.96;100451.13;5014720;28;20053;-54
2022/06/02 06:40:18;;;;;;;13.68;10.57;;;;;;;12.67;62.67;100453.75;5014135;28;20088;-54
2022/06/02 06:43:09;;;;;;;14.82;10.35;;;;;;;12.67;62.87;100445.97;5012863;28;20472;-54
2022/06/02 06:46:12;;;;;;;11.77;9.48;;;;;;;12.69;63.03;100443.38;5014336;28;20048;-54
2022/06/02 06:49:11;;;;;;;15.40;10.40;;;;;;;12.69;62.85;100444.22;5013337;28;20096;-54
2022/06/02 06:52:47;;;;;;;12.60;10.82;;;;;;;12.69;63.25;100436.41;5013895;28;20058;-54
2022/06/02 06:56:08;;;;;;;13.00;10.07;;;;;;;12.69;62.94;100444.22;5009815;28;20497;-55
2022/06/02 06:59:04;;;;;;;11.45;9.32;;;;;;;12.70;63.24;100451.16;5013093;28;20048;-55
2022/06/02 07:02:16;;;;;;;12.23;9.75;;;;;;;12.69;63.32;100439.03;5012700;28;20131;-54
2022/06/02 07:05:20;;;;;;;11.80;9.55;;;;;;;12.70;63.07;100422.56;5014145;28;20049;-54
2022/06/02 07:08:30;;;;;;;12.27;9.45;;;;;;;12.69;63.00;100426.00;5013233;28;20127;-54
2022/06/02 07:14:51;;;;;;;13.52;10.02;;;;;;;12.70;62.74;100419.97;5013525;28;20048;-55
2022/06/02 07:17:46;;;;;;;12.40;8.85;;;;;;;12.71;63.28;100424.31;5013082;28;20048;-54
2022/06/02 07:20:41;;;;;;;11.05;9.85;;;;;;;12.72;63.17;100413.06;5012941;28;20077;-54
2022/06/02 07:23:28;;;;;;;12.02;10.27;;;;;;;12.73;63.16;100420.00;5013970;28;20561;-54
2022/06/02 07:26:40;;;;;;;11.90;9.63;;;;;;;12.75;63.13;100422.66;5012768;28;20118;-56
2022/06/02 07:29:43;;;;;;;10.43;9.20;;;;;;;12.74;63.20;100416.56;5012431;28;20096;-54
2022/06/02 07:32:39;;;;;;;12.02;9.77;;;;;;;12.76;63.45;100424.41;5012220;28;20076;-54
2022/06/02 07:35:44;;;;;;;11.15;9.23;;;;;;;12.76;62.94;100420.06;5013225;28;20053;-54
2022/06/02 07:38:57;;;;;;;11.60;8.77;;;;;;;12.78;63.22;100425.25;5012392;28;20045;-54
2022/06/02 07:41:53;;;;;;;11.20;9.23;;;;;;;12.79;63.18;100432.22;5012929;28;20115;-54
2022/06/02 07:45:03;;;;;;;16.10;9.48;;;;;;;12.81;63.28;100430.50;5013632;28;20045;-56
2022/06/02 07:48:26;;;;;;;11.05;9.95;;;;;;;12.81;63.01;100427.91;5013340;28;20088;-56
2022/06/02 07:51:31;;;;;;;13.45;10.15;;;;;;;12.83;63.20;100433.16;5011966;28;20072;-54
2022/06/02 07:54:21;;;;;;;11.82;8.77;;;;;;;12.81;63.18;100430.50;5013105;28;20099;-55
2022/06/02 07:57:08;;;;;;;10.50;9.10;;;;;;;12.82;63.39;100437.47;5012944;28;20065;-56
2022/06/02 08:00:15;;;;;;;9.63;8.15;;;;;;;12.83;63.37;100439.22;5013316;28;20057;-55
2022/06/02 08:03:30;;;;;;;10.40;8.70;;;;;;;12.85;62.97;100450.53;5012222;28;20502;-54
2022/06/02 08:06:40;;;;;;;11.25;9.18;;;;;;;12.85;63.30;100450.53;5012601;28;20076;-56
2022/06/02 08:09:45;;;;;;;12.82;8.95;;;;;;;12.86;63.06;100448.78;5016581;28;20121;-56
2022/06/02 08:12:51;;;;;;;10.20;9.18;;;;;;;12.85;63.57;100442.72;5016913;28;20138;-56
2022/06/02 08:15:54;;;;;;;12.82;8.95;;;;;;;12.88;63.29;100453.16;5016669;28;20045;-56
2022/06/02 08:18:59;;;;;;;9.48;8.52;;;;;;;12.90;63.20;100453.16;5016010;28;20421;-56
2022/06/02 08:21:49;;;;;;;9.68;7.60;;;;;;;12.90;63.34;100448.88;5016577;28;20440;-53
2022/06/02 08:24:58;;;;;;;10.63;8.68;;;;;;;12.92;63.53;100451.47;5016121;28;20080;-54
2022/06/02 08:28:14;;;;;;;10.50;8.73;;;;;;;12.93;63.14;100451.47;5016739;28;20421;-56
2022/06/02 08:31:06;;;;;;;14.20;10.57;;;;;;;12.93;63.20;100458.41;5016066;28;20083;-56
2022/06/02 08:34:13;;;;;;;10.35;8.82;;;;;;;12.95;63.44;100456.72;5016628;28;20048;-56
2022/06/02 08:37:36;;;;;;;13.80;9.52;;;;;;;12.98;63.16;100451.56;5015605;28;20405;-56
2022/06/02 08:40:23;;;;;;;13.15;9.40;;;;;;;12.99;63.22;100449.81;5016642;28;20040;-56
2022/06/02 08:43:21;;;;;;;9.15;8.02;;;;;;;13.00;63.26;100465.44;5016824;28;20048;-56
2022/06/02 08:46:08;;;;;;;12.10;9.07;;;;;;;13.03;63.38;100465.47;5015203;28;20048;-56
2022/06/02 08:49:28;;;;;;;11.43;8.90;;;;;;;13.05;63.11;100462.91;5015704;28;20053;-56
2022/06/02 08:52:33;;;;;;;9.60;8.15;;;;;;;13.07;63.47;100458.63;5015587;28;20093;-56
2022/06/02 08:55:44;;;;;;;9.07;7.88;;;;;;;13.09;63.24;100455.16;5015189;28;20099;-55
2022/06/02 08:58:50;;;;;;;11.10;8.20;;;;;;;13.09;63.59;100459.47;5016314;28;20137;-55
2022/06/02 09:02:04;;;;;;;11.07;8.30;;;;;;;13.12;63.14;100453.47;5014965;28;20095;-55
2022/06/02 09:04:51;;;;;;;12.15;7.85;;;;;;;13.14;63.25;100454.34;5016247;28;20041;-56
2022/06/02 09:07:55;;;;;;;11.40;7.85;;;;;;;13.14;62.97;100447.41;5015321;28;20175;-54
2022/06/02 09:11:24;;;;;;;9.15;8.10;;;;;;;13.15;63.02;100454.34;5014741;28;20100;-54
2022/06/02 09:14:52;;;;;;;10.52;8.52;;;;;;;13.15;62.95;100458.69;4998357;28;20052;-56
2022/06/02 09:18:10;;;;;;;11.60;8.05;;;;;;;13.16;62.93;100457.81;5015827;28;20052;-56
2022/06/02 09:21:03;;;;;;;8.50;7.05;;;;;;;13.15;63.30;100456.97;5015533;28;20086;-54
2022/06/02 09:23:56;;;;;;;9.23;7.35;;;;;;;13.16;63.30;100447.41;5015728;28;20049;-54
2022/06/02 09:26:51;;;;;;;11.15;8.75;;;;;;;13.21;63.25;100453.56;5014975;28;20052;-56
2022/06/02 09:29:54;;;;;;;11.27;7.75;;;;;;;13.22;62.78;100450.09;5014460;28;20585;-56
2022/06/02 09:32:57;;;;;;;10.43;7.07;;;;;;;13.26;63.29;100441.47;5015938;28;20137;-55
2022/06/02 09:35:50;;;;;;;8.50;7.60;;;;;;;13.26;62.87;100441.47;5014149;28;20620;-56
2022/06/02 09:39:11;;;;;;;8.55;7.75;;;;;;;13.28;62.84;100438.88;5014593;28;20563;-55
2022/06/02 09:42:17;;;;;;;8.50;7.50;;;;;;;13.30;63.25;100435.47;5015166;28;20087;-55
2022/06/02 09:45:29;;;;;;;8.63;6.88;;;;;;;13.31;62.80;100429.41;5014719;28;20076;-55
2022/06/02 09:48:19;;;;;;;8.95;7.40;;;;;;;13.32;63.17;100431.13;5014096;28;20096;-55
2022/06/02 09:51:24;;;;;;;12.63;8.20;;;;;;;13.36;62.58;100426.84;5015346;28;20569;-55
2022/06/02 09:54:28;;;;;;;9.45;7.63;;;;;;;13.36;62.91;100432.03;5015066;28;20052;-55
2022/06/02 10:00:50;;;;;;;8.00;7.00;;;;;;;13.38;62.93;100425.97;5015337;28;20335;-56
2022/06/02 10:03:52;;;;;;;9.95;7.32;;;;;;;13.42;62.52;100423.44;5013676;28;20065;-55
2022/06/02 10:07:04;;;;;;;8.70;6.75;;;;;;;13.43;62.52;100427.81;5015008;28;20183;-55
2022/06/02 10:10:03;;;;;;;9.60;8.00;;;;;;;13.43;62.79;100422.59;5014072;28;20096;-55
2022/06/02 10:13:31;;;;;;;8.73;6.93;;;;;;;13.44;62.71;100421.75;5014731;28;20076;-55
2022/06/02 10:16:35;;;;;;;7.70;6.90;;;;;;;13.45;62.40;100418.28;5014452;28;20048;-55
2022/06/02 10:19:43;;;;;;;9.98;6.63;;;;;;;13.47;62.44;100413.97;5014323;28;20048;-56
2022/06/02 10:23:04;;;;;;;8.05;7.15;;;;;;;13.48;62.77;100419.19;5013808;28;20133;-55
2022/06/02 10:26:20;;;;;;;7.72;6.93;;;;;;;13.50;62.54;100419.19;5014837;28;20561;-55
2022/06/02 10:29:46;;;;;;;9.15;6.50;;;;;;;13.51;62.60;100420.94;5013928;28;20524;-57
2022/06/02 10:32:50;;;;;;;8.35;6.40;;;;;;;13.51;62.59;100423.53;5014079;28;20405;-55
2022/06/02 10:36:27;;;;;;;7.70;6.07;;;;;;;13.52;62.31;100420.97;5014092;28;20488;-56
2022/06/02 10:39:40;;;;;;;9.30;6.80;;;;;;;13.55;62.64;100426.19;5001693;28;20425;-55
2022/06/02 10:42:54;;;;;;;8.88;6.15;;;;;;;13.57;62.03;100421.00;5014565;28;20072;-55
2022/06/02 10:46:12;;;;;;;7.60;6.80;;;;;;;13.59;62.17;100423.59;5013569;28;20092;-55
2022/06/02 10:49:26;;;;;;;7.68;6.82;;;;;;;13.59;62.40;100410.59;5013220;28;20052;-56
2022/06/02 10:52:42;;;;;;;8.48;5.93;;;;;;;13.58;62.45;100412.34;5013094;28;20404;-55
2022/06/02 10:55:44;;;;;;;8.98;6.97;;;;;;;13.61;62.16;100414.97;5013912;28;20096;-55
2022/06/02 10:58:58;;;;;;;8.05;6.70;;;;;;;13.62;62.30;100421.94;5014191;28;20056;-55
2022/06/02 11:02:14;;;;;;;9.55;6.38;;;;;;;13.64;62.07;100414.13;5012937;28;20180;-56
2022/06/02 11:05:39;;;;;;;7.18;6.32;;;;;;;13.64;62.30;100407.16;5012964;28;20417;-55
2022/06/02 11:08:47;;;;;;;7.30;5.50;;;;;;;13.66;61.96;100410.66;5013641;28;20543;-56
2022/06/02 11:12:01;;;;;;;7.45;6.03;;;;;;;13.70;61.97;100401.16;5013277;28;20079;-56
2022/06/02 11:15:15;;;;;;;5.97;5.20;;;;;;;13.72;62.13;100393.34;5012983;28;20049;-56
2022/06/02 11:18:14;;;;;;;7.43;6.20;;;;;;;13.72;61.92;100383.78;5003943;28;20053;-55
2022/06/02 11:21:10;;;;;;;7.80;6.57;;;;;;;13.75;61.71;100388.19;5012591;28;20064;-55
2022/06/02 11:24:12;;;;;;;12.27;6.70;;;;;;;13.75;61.93;100368.19;5013830;28;20088;-56
2022/06/02 11:27:39;;;;;;;6.82;6.13;;;;;;;13.76;62.02;100364.72;5012958;28;20088;-56
2022/06/02 11:30:44;;;;;;;6.45;5.63;;;;;;;13.79;61.70;100363.88;5012775;28;20120;-56
2022/06/02 11:34:08;;;;;;;8.02;5.82;;;;;;;13.78;61.86;100362.16;5013404;28;20069;-57
2022/06/02 11:37:02;;;;;;;9.73;6.72;;;;;;;13.79;61.86;100353.44;5012623;28;20068;-56
2022/06/02 11:40:06;;;;;;;6.85;5.95;;;;;;;13.79;61.84;100354.34;5012379;28;20512;-53
2022/06/02 11:43:24;;;;;;;8.63;6.00;;;;;;;13.79;61.70;100346.53;5014384;28;20104;-55
2022/06/02 11:46:32;;;;;;;6.72;6.03;;;;;;;13.82;61.65;100349.16;5016387;28;20049;-55
2022/06/02 11:49:54;;;;;;;10.15;6.10;;;;;;;13.84;61.44;100347.44;5003883;28;20049;-56
2022/06/02 11:52:56;;;;;;;8.10;6.05;;;;;;;13.84;61.56;100342.25;5017014;28;20050;-56
2022/06/02 11:55:55;;;;;;;8.85;5.38;;;;;;;13.85;61.69;100335.28;5016369;28;20040;-56
2022/06/02 11:59:16;;;;;;;9.57;6.13;;;;;;;13.85;61.54;100330.06;5016774;28;20508;-56
2022/06/02 12:02:40;;;;;;;38.60;9.57;;;;;;;13.88;61.44;100326.59;5017377;28;20084;-56
2022/06/02 12:05:46;;;;;;;15.05;6.63;;;;;;;13.88;61.41;100324.88;5016124;28;20080;-56
2022/06/02 12:09:07;;;;;;;13.25;6.70;;;;;;;13.90;61.44;100328.38;5017014;28;20092;-56
2022/06/02 12:12:21;;;;;;;12.15;6.50;;;;;;;13.93;61.26;100320.59;5016783;28;20053;-56
2022/06/02 12:15:11;;;;;;;8.57;6.28;;;;;;;13.93;61.41;100319.69;5003279;28;20099;-56
2022/06/02 12:18:14;;;;;;;10.02;6.70;;;;;;;13.93;61.34;100312.78;5016018;28;20048;-56
2022/06/02 12:21:18;;;;;;;7.03;5.95;;;;;;;13.94;61.17;100311.88;5017030;28;20068;-56
2022/06/02 12:24:27;;;;;;;119.57;20.50;;;;;;;13.94;61.34;100305.81;5014688;28;20041;-56
2022/06/02 12:27:30;;;;;;;116.85;20.15;;;;;;;13.94;61.25;100306.66;5015623;28;20115;-55
2022/06/02 12:30:57;;;;;;;288.10;36.13;;;;;;;13.96;61.17;100304.94;5016727;28;20045;-54
2022/06/02 12:34:18;;;;;;;644.30;81.10;;;;;;;13.96;61.13;100304.94;5015751;28;20422;-54
2022/06/02 12:37:25;;;;;;;178.73;24.58;;;;;;;13.97;61.34;100295.41;5016231;28;20127;-54
2022/06/02 12:40:34;;;;;;;69.82;15.93;;;;;;;14.00;61.08;100290.22;5015954;28;20053;-54
2022/06/02 12:44:10;;;;;;;62.13;11.13;;;;;;;14.04;60.89;100296.31;5016801;28;20508;-54
2022/06/02 12:47:03;;;;;;;;;;;;;;;14.04;61.08;100286.75;4981155;28;20625;-54
2022/06/02 12:50:11;;;;;;;29.75;8.00;;;;;;;14.04;61.12;100288.50;5015281;28;19919;-54
2022/06/02 12:53:44;;;;;;;31.40;7.28;;;;;;;14.05;61.11;100290.25;5015233;28;20088;-54
2022/06/02 12:56:47;;;;;;;23.15;6.32;;;;;;;14.05;60.87;100290.25;5015699;28;20095;-54
2022/06/02 12:59:51;;;;;;;17.45;6.13;;;;;;;14.04;60.88;100285.91;5016170;28;20484;-54
2022/06/02 13:03:03;;;;;;;11.13;6.10;;;;;;;14.06;61.21;100289.38;5015851;28;20100;-54
2022/06/02 13:06:25;;;;;;;18.00;7.28;;;;;;;14.07;60.99;100283.31;5015151;28;20100;-54
2022/06/02 13:09:31;;;;;;;11.73;5.40;;;;;;;14.09;60.87;100285.06;5016060;28;20094;-55
2022/06/02 13:12:44;;;;;;;10.60;4.93;;;;;;;14.10;60.95;100289.41;5015622;28;20081;-54
2022/06/02 13:15:55;;;;;;;8.77;4.70;;;;;;;14.12;60.86;100277.25;5015553;28;20052;-54
2022/06/02 13:19:17;;;;;;;11.25;5.15;;;;;;;14.14;60.64;100275.53;5015112;28;20049;-54
2022/06/02 13:22:20;;;;;;;9.10;5.13;;;;;;;14.15;60.75;100279.88;5015560;28;20048;-54
2022/06/02 13:25:28;;;;;;;10.63;4.78;;;;;;;14.15;60.57;100273.78;5015616;28;20068;-55
2022/06/02 13:28:47;;;;;;;8.77;4.60;;;;;;;14.16;60.78;100273.81;5014999;28;20053;-55
2022/06/02 13:31:46;;;;;;;12.73;5.60;;;;;;;14.16;60.41;100281.63;5015242;28;20122;-56
2022/06/02 13:34:52;;;;;;;9.18;4.97;;;;;;;14.18;60.67;100268.59;5014953;28;20099;-54
2022/06/02 13:37:50;;;;;;;7.80;4.32;;;;;;;14.19;60.78;100272.06;5015272;28;20095;-53
2022/06/02 13:41:34;;;;;;;5.55;4.35;;;;;;;14.22;60.50;100277.28;5014828;28;20052;-54
2022/06/02 13:44:33;;;;;;;14.93;4.75;;;;;;;14.23;60.23;100273.81;4974173;28;20046;-55
2022/06/02 13:47:20;;;;;;;6.82;4.20;;;;;;;14.27;60.16;100276.44;4974121;28;20097;-54
2022/06/02 13:50:07;;;;;;;6.65;4.18;;;;;;;14.27;60.52;100271.22;5015198;28;20044;-54
2022/06/02 13:53:19;;;;;;;6.30;4.13;;;;;;;14.26;60.25;100266.03;5014518;28;20060;-54
2022/06/02 13:59:57;;;;;;;9.68;4.00;;;;;;;14.29;59.98;100266.03;5014692;28;20099;-54
2022/06/02 14:03:04;;;;;;;10.75;4.65;;;;;;;14.29;60.39;100264.28;5013772;28;20064;-54
2022/06/02 14:06:06;;;;;;;7.68;4.20;;;;;;;14.29;60.15;100263.44;5013278;28;20405;-55
2022/06/02 14:08:57;;;;;;;6.22;4.28;;;;;;;14.30;60.27;100263.44;5014046;28;20057;-56
2022/06/02 14:11:53;;;;;;;7.28;3.95;;;;;;;14.30;60.14;100263.44;5014897;28;20073;-56
2022/06/02 14:14:45;;;;;;;8.63;3.85;;;;;;;14.30;60.10;100262.56;5015022;28;20056;-56
2022/06/02 14:17:42;;;;;;;5.93;3.85;;;;;;;14.32;60.01;100266.06;5014838;28;20048;-56
2022/06/02 14:20:45;;;;;;;7.07;4.32;;;;;;;14.31;60.00;100254.75;5013720;28;20052;-54
2022/06/02 14:23:56;;;;;;;7.10;4.38;;;;;;;14.32;60.10;100264.31;5014325;28;20568;-54
2022/06/02 14:26:54;;;;;;;6.68;3.65;;;;;;;14.32;60.01;100246.06;5014521;28;20096;-54
2022/06/02 14:29:55;;;;;;;5.30;4.15;;;;;;;14.34;60.17;100240.84;5013908;28;20142;-55
2022/06/02 14:33:11;;;;;;;6.70;4.25;;;;;;;14.34;60.11;100238.22;5013434;28;20417;-54